Time;durP1;ratioP1;P1;durP2;ratioP2;P2;SDS_P1;SDS_P2;PMS_P1;PMS_P2;Temp;Humidity;BMP_temperature;BMP_pressure;BME280_temperature;BME280_humidity;BME280_pressure;Samples;Min_cycle;Max_cycle;Signal;HPM_P1;HPM_P2
2022/01/05 00:02:24;;;;;;;10.00;0.90;;;2.70;99.90;;;;;;5029195;28;20052;-82
2022/01/05 00:04:50;;;;;;;4.97;0.63;;;2.70;99.90;;;;;;5030323;28;20053;-82
2022/01/05 00:07:15;;;;;;;10.57;1.10;;;2.70;99.90;;;;;;5031210;28;20540;-82
2022/01/05 00:09:41;;;;;;;8.63;0.90;;;2.70;99.90;;;;;;5025376;28;20151;-82
2022/01/05 00:12:07;;;;;;;5.68;0.85;;;2.70;99.90;;;;;;5021348;28;20045;-82
2022/01/05 00:14:33;;;;;;;7.32;1.75;;;2.70;99.90;;;;;;5027641;28;20065;-82
2022/01/05 00:16:58;;;;;;;10.05;1.38;;;2.70;99.90;;;;;;5028607;28;20123;-82
2022/01/05 00:19:24;;;;;;;4.88;0.90;;;2.70;99.90;;;;;;5030812;28;20033;-82
2022/01/05 00:21:50;;;;;;;6.55;1.02;;;2.60;99.90;;;;;;5028886;28;20053;-82
2022/01/05 00:24:16;;;;;;;7.75;0.93;;;2.60;99.90;;;;;;5027901;28;20045;-82
2022/01/05 00:26:41;;;;;;;8.57;2.08;;;2.60;99.90;;;;;;5028469;28;20517;-82
2022/01/05 00:29:07;;;;;;;10.13;1.50;;;2.60;99.90;;;;;;5030967;28;20117;-82
2022/01/05 00:31:32;;;;;;;8.30;0.90;;;2.70;99.90;;;;;;5026596;28;20096;-82
2022/01/05 00:33:58;;;;;;;7.78;1.15;;;2.70;99.90;;;;;;5028948;28;20807;-82
2022/01/05 00:36:24;;;;;;;10.32;1.60;;;2.70;99.90;;;;;;5028740;28;20044;-82
2022/01/05 00:38:49;;;;;;;9.00;1.38;;;2.70;99.90;;;;;;5027471;28;20084;-82
2022/01/05 00:41:15;;;;;;;6.97;1.00;;;2.80;99.90;;;;;;5028121;28;20107;-82
2022/01/05 00:43:41;;;;;;;10.07;1.85;;;2.60;99.90;;;;;;5059413;28;20042;-82
2022/01/05 00:46:07;;;;;;;9.30;1.20;;;2.70;99.90;;;;;;5028960;28;20055;-82
2022/01/05 00:48:34;;;;;;;5.63;0.95;;;2.70;99.90;;;;;;5027069;28;20076;-82
2022/01/05 00:51:02;;;;;;;10.25;1.08;;;2.70;99.90;;;;;;5027318;28;20045;-83
2022/01/05 00:53:28;;;;;;;11.20;1.63;;;2.60;99.90;;;;;;5028424;28;20042;-82
2022/01/05 00:55:54;;;;;;;16.08;2.13;;;2.60;99.90;;;;;;5028209;28;20115;-82
2022/01/05 00:58:19;;;;;;;11.20;1.00;;;2.70;99.90;;;;;;5028885;28;20508;-82
2022/01/05 01:00:45;;;;;;;12.63;1.80;;;2.70;99.90;;;;;;5026145;28;20125;-83
2022/01/05 01:03:11;;;;;;;9.73;1.35;;;2.70;99.90;;;;;;5023837;28;20069;-83
2022/01/05 01:05:36;;;;;;;6.60;1.25;;;2.70;99.90;;;;;;5026818;28;20523;-82
2022/01/05 01:08:02;;;;;;;10.43;1.85;;;2.80;99.90;;;;;;5027428;28;20041;-83
2022/01/05 01:10:27;;;;;;;6.80;1.20;;;2.80;99.90;;;;;;5024401;28;20056;-82
2022/01/05 01:12:53;;;;;;;11.50;1.50;;;2.80;99.90;;;;;;5022735;28;20404;-83
2022/01/05 01:15:19;;;;;;;8.00;1.75;;;2.90;99.90;;;;;;5026054;28;20068;-82
2022/01/05 01:17:45;;;;;;;13.68;1.77;;;2.90;99.90;;;;;;5028259;28;20053;-82
2022/01/05 01:20:11;;;;;;;9.85;1.65;;;2.90;99.90;;;;;;5023332;28;20045;-82
2022/01/05 01:22:37;;;;;;;14.18;1.40;;;2.90;99.90;;;;;;5028589;28;20477;-83
2022/01/05 01:25:04;;;;;;;10.10;1.23;;;2.90;99.90;;;;;;5029322;28;20124;-82
2022/01/05 01:27:30;;;;;;;5.72;1.67;;;2.90;99.90;;;;;;5027891;28;20045;-82
2022/01/05 01:29:55;;;;;;;15.18;2.05;;;2.90;99.90;;;;;;5025572;28;20076;-82
2022/01/05 01:32:21;;;;;;;8.02;2.05;;;2.90;99.90;;;;;;5036796;28;20121;-83
2022/01/05 01:34:46;;;;;;;9.77;2.25;;;2.90;99.90;;;;;;5059584;28;20505;-82
2022/01/05 01:37:12;;;;;;;11.02;2.05;;;3.00;99.90;;;;;;5028867;28;20049;-83
2022/01/05 01:39:38;;;;;;;8.13;1.20;;;2.90;99.90;;;;;;5028833;28;20451;-83
2022/01/05 01:42:04;;;;;;;6.68;1.52;;;2.90;99.90;;;;;;5028413;28;20053;-83
2022/01/05 01:44:29;;;;;;;7.10;1.52;;;2.90;99.90;;;;;;5020608;28;20424;-82
2022/01/05 01:46:55;;;;;;;13.90;1.73;;;2.90;99.90;;;;;;5028305;28;20037;-83
2022/01/05 01:49:21;;;;;;;12.60;1.67;;;2.90;99.90;;;;;;5024449;28;20125;-83
2022/01/05 01:51:46;;;;;;;9.45;2.67;;;2.90;99.90;;;;;;5026587;28;20497;-83
2022/01/05 01:54:13;;;;;;;6.72;0.82;;;2.80;99.90;;;;;;5023994;28;20041;-82
2022/01/05 01:56:38;;;;;;;13.30;1.67;;;2.90;99.90;;;;;;5024875;28;20113;-83
2022/01/05 01:59:06;;;;;;;10.48;1.17;;;2.90;99.90;;;;;;5028367;28;20172;-83
2022/01/05 02:01:31;;;;;;;7.38;1.85;;;2.80;99.90;;;;;;5025965;28;20049;-82
2022/01/05 02:03:57;;;;;;;7.78;1.20;;;2.80;99.90;;;;;;5025951;28;20061;-82
2022/01/05 02:06:23;;;;;;;16.33;1.60;;;2.80;99.90;;;;;;5026830;28;20053;-82
2022/01/05 02:08:49;;;;;;;8.50;1.20;;;2.80;99.90;;;;;;5027148;28;20485;-82
2022/01/05 02:11:15;;;;;;;15.95;2.33;;;2.80;99.90;;;;;;5034351;28;20041;-83
2022/01/05 02:13:41;;;;;;;10.32;1.27;;;2.70;99.90;;;;;;5025205;28;20037;-83
2022/01/05 02:16:07;;;;;;;8.90;1.13;;;2.70;99.90;;;;;;5025587;28;20052;-83
2022/01/05 02:21:10;;;;;;;6.78;1.20;;;2.70;99.90;;;;;;5040782;28;20645;-82
2022/01/05 02:23:37;;;;;;;12.18;2.15;;;2.60;99.90;;;;;;5027834;28;20044;-83
2022/01/05 02:26:07;;;;;;;9.05;1.30;;;2.60;99.90;;;;;;5028692;28;20060;-83
2022/01/05 02:28:33;;;;;;;11.50;1.55;;;2.60;99.90;;;;;;5026794;28;20483;-82
2022/01/05 02:30:59;;;;;;;14.40;2.28;;;2.60;99.90;;;;;;5025613;28;20136;-82
2022/01/05 02:33:25;;;;;;;9.98;1.75;;;2.60;99.90;;;;;;5027418;28;20492;-82
2022/01/05 02:35:51;;;;;;;8.77;1.58;;;2.60;99.90;;;;;;5025095;28;20045;-83
2022/01/05 02:38:18;;;;;;;11.70;1.35;;;2.60;99.90;;;;;;5025792;28;20060;-83
2022/01/05 02:40:44;;;;;;;9.95;2.08;;;2.60;99.90;;;;;;5026105;28;20517;-83
2022/01/05 02:43:10;;;;;;;15.98;2.50;;;2.70;99.90;;;;;;5026412;28;20543;-82
2022/01/05 02:45:35;;;;;;;9.90;1.65;;;2.70;99.90;;;;;;5027301;28;20053;-83
2022/01/05 02:48:02;;;;;;;7.90;1.45;;;2.70;99.90;;;;;;5026997;28;20033;-83
2022/01/05 02:50:28;;;;;;;10.63;2.10;;;2.70;99.90;;;;;;5022903;28;20492;-82
2022/01/05 02:52:53;;;;;;;10.88;1.83;;;2.70;99.90;;;;;;5025092;28;20076;-83
2022/01/05 02:55:19;;;;;;;7.90;1.20;;;2.70;99.90;;;;;;5037667;28;20127;-83
2022/01/05 02:57:45;;;;;;;9.32;1.40;;;2.70;99.90;;;;;;5026287;28;20045;-83
2022/01/05 03:00:12;;;;;;;9.55;1.67;;;2.70;99.90;;;;;;5019591;28;20049;-83
2022/01/05 03:02:37;;;;;;;16.80;2.10;;;2.70;99.90;;;;;;5025008;28;20504;-83
2022/01/05 03:05:04;;;;;;;10.85;1.50;;;2.70;99.90;;;;;;5023490;28;20041;-83
2022/01/05 03:07:30;;;;;;;10.50;1.67;;;2.70;99.90;;;;;;5023233;28;20120;-83
2022/01/05 03:09:56;;;;;;;11.27;1.75;;;2.70;99.90;;;;;;5026131;28;20045;-82
2022/01/05 03:12:21;;;;;;;11.30;1.50;;;2.70;99.90;;;;;;5020336;28;20394;-82
2022/01/05 03:14:47;;;;;;;9.30;2.33;;;2.70;99.90;;;;;;5023026;28;20041;-83
2022/01/05 03:17:12;;;;;;;7.30;1.10;;;2.80;99.90;;;;;;5024391;28;20049;-83
2022/01/05 03:19:38;;;;;;;10.70;1.98;;;2.80;99.90;;;;;;5025017;28;20120;-83
2022/01/05 03:22:04;;;;;;;17.75;2.47;;;2.80;99.90;;;;;;5026981;28;20052;-82
2022/01/05 03:24:29;;;;;;;15.10;1.85;;;2.90;99.90;;;;;;5025869;28;20046;-83
2022/01/05 03:26:55;;;;;;;15.85;1.75;;;2.90;99.90;;;;;;5024216;28;20072;-83
2022/01/05 03:29:21;;;;;;;12.50;1.95;;;3.00;99.90;;;;;;5026736;28;20037;-83
2022/01/05 03:31:46;;;;;;;10.30;2.00;;;3.00;99.90;;;;;;5027447;28;20045;-83
2022/01/05 03:34:17;;;;;;;10.23;1.70;;;3.00;99.90;;;;;;5025855;28;20072;-83
2022/01/05 03:36:42;;;;;;;15.48;2.10;;;3.00;99.90;;;;;;5055148;28;20050;-83
2022/01/05 03:39:08;;;;;;;11.73;2.38;;;3.10;99.90;;;;;;5025144;28;20044;-83
2022/01/05 03:41:33;;;;;;;8.90;1.52;;;3.10;99.90;;;;;;5022513;28;20432;-83
2022/01/05 03:43:59;;;;;;;11.05;1.48;;;3.10;99.90;;;;;;5021948;28;20041;-83
2022/01/05 03:46:24;;;;;;;16.70;2.50;;;3.20;99.90;;;;;;5024656;28;20129;-83
2022/01/05 03:48:50;;;;;;;16.27;2.40;;;3.20;99.90;;;;;;5023382;28;20057;-83
2022/01/05 03:51:16;;;;;;;10.93;1.42;;;3.30;99.90;;;;;;5022294;28;20048;-83
2022/01/05 03:53:41;;;;;;;9.63;1.33;;;3.20;99.90;;;;;;5026073;28;20050;-83
2022/01/05 03:56:07;;;;;;;15.68;2.13;;;3.20;99.90;;;;;;5029092;28;20512;-83
2022/01/05 03:58:32;;;;;;;12.73;2.42;;;3.20;99.90;;;;;;5028756;28;20048;-83
2022/01/05 04:00:58;;;;;;;11.43;1.60;;;3.20;99.90;;;;;;5029547;28;20132;-83
2022/01/05 04:03:24;;;;;;;15.05;2.10;;;3.20;99.90;;;;;;5025423;28;20069;-83
2022/01/05 04:05:49;;;;;;;11.73;1.65;;;3.20;99.90;;;;;;5026664;28;20791;-83
2022/01/05 04:08:15;;;;;;;12.60;1.90;;;3.20;99.90;;;;;;5024945;28;20045;-83
2022/01/05 04:10:40;;;;;;;9.93;1.35;;;3.20;99.90;;;;;;5023529;28;20044;-83
2022/01/05 04:13:06;;;;;;;7.80;2.03;;;3.20;99.90;;;;;;5052930;28;20118;-83
2022/01/05 04:15:32;;;;;;;14.50;1.73;;;3.20;99.90;;;;;;5026415;28;20033;-83
2022/01/05 04:17:58;;;;;;;13.43;1.50;;;3.30;99.90;;;;;;5026542;28;20384;-83
2022/01/05 04:20:23;;;;;;;14.23;2.03;;;3.30;99.90;;;;;;5024806;28;20045;-83
2022/01/05 04:22:49;;;;;;;10.23;2.33;;;3.30;99.90;;;;;;5025135;28;20401;-83
2022/01/05 04:25:15;;;;;;;8.75;1.15;;;3.40;99.90;;;;;;5025510;28;20072;-83
2022/01/05 04:27:40;;;;;;;9.90;1.48;;;3.50;99.90;;;;;;5027570;28;20481;-83
2022/01/05 04:30:08;;;;;;;11.45;2.10;;;3.50;99.90;;;;;;5026965;28;20455;-83
2022/01/05 04:32:35;;;;;;;10.32;1.25;;;3.50;99.90;;;;;;5040275;28;20045;-83
2022/01/05 04:35:01;;;;;;;9.20;1.33;;;3.60;99.90;;;;;;5023480;28;20053;-83
2022/01/05 04:37:27;;;;;;;13.55;1.83;;;3.60;99.90;;;;;;5024147;28;20045;-83
2022/01/05 04:39:53;;;;;;;11.05;2.25;;;3.70;99.90;;;;;;5028155;28;20087;-83
2022/01/05 04:42:19;;;;;;;10.32;1.45;;;3.70;99.90;;;;;;5024952;28;20400;-83
2022/01/05 04:44:44;;;;;;;8.30;1.83;;;3.70;99.90;;;;;;5029132;28;20036;-83
2022/01/05 04:47:12;;;;;;;9.45;1.45;;;3.70;99.90;;;;;;5026107;28;20661;-83
2022/01/05 04:49:38;;;;;;;14.18;1.75;;;3.70;99.90;;;;;;5029024;28;20420;-83
2022/01/05 04:52:04;;;;;;;12.55;1.65;;;3.70;99.90;;;;;;5028922;28;20054;-83
2022/01/05 04:54:29;;;;;;;11.65;1.20;;;3.70;99.90;;;;;;5030046;28;20115;-84
2022/01/05 04:56:55;;;;;;;9.15;1.20;;;3.70;99.90;;;;;;5028341;28;20489;-83
2022/01/05 04:59:20;;;;;;;8.30;0.90;;;3.70;99.90;;;;;;5026952;28;20100;-83
2022/01/05 05:01:46;;;;;;;9.32;1.23;;;3.70;99.90;;;;;;5030401;28;20072;-83
2022/01/05 05:04:12;;;;;;;13.48;1.77;;;3.70;99.90;;;;;;5027281;28;20091;-83
2022/01/05 05:06:37;;;;;;;16.35;1.90;;;3.70;99.90;;;;;;5025499;28;20033;-83
2022/01/05 05:09:03;;;;;;;11.30;0.90;;;3.70;99.90;;;;;;5026735;28;20041;-83
2022/01/05 05:11:29;;;;;;;8.82;1.85;;;3.70;99.90;;;;;;5023443;28;20551;-83
2022/01/05 05:13:54;;;;;;;10.77;1.30;;;3.70;99.90;;;;;;5030755;28;20559;-83
2022/01/05 05:16:20;;;;;;;9.38;1.90;;;3.70;99.90;;;;;;5027105;28;20425;-83
2022/01/05 05:18:46;;;;;;;12.35;1.55;;;3.70;99.90;;;;;;5028380;28;20073;-83
2022/01/05 05:21:11;;;;;;;13.05;1.60;;;3.70;99.90;;;;;;5027205;28;20539;-83
2022/01/05 05:23:37;;;;;;;7.53;1.13;;;3.60;99.90;;;;;;5029394;28;20108;-83
2022/01/05 05:26:03;;;;;;;13.93;1.90;;;3.60;99.90;;;;;;5030692;28;20080;-83
2022/01/05 05:28:28;;;;;;;11.32;1.73;;;3.60;99.90;;;;;;5023216;28;20041;-83
2022/01/05 05:30:54;;;;;;;11.75;1.55;;;3.60;99.90;;;;;;5026379;28;20072;-83
2022/01/05 05:33:20;;;;;;;8.23;1.52;;;3.60;99.90;;;;;;5025012;28;20050;-83
2022/01/05 05:35:45;;;;;;;12.98;1.65;;;3.60;99.90;;;;;;5028652;28;20050;-83
2022/01/05 05:38:12;;;;;;;12.43;1.73;;;3.60;99.90;;;;;;5026089;28;20519;-83
2022/01/05 05:40:38;;;;;;;26.05;2.25;;;3.60;99.90;;;;;;5026040;28;20041;-83
2022/01/05 05:43:04;;;;;;;10.48;1.35;;;3.70;99.90;;;;;;5027128;28;20072;-83
2022/01/05 05:45:29;;;;;;;13.02;1.60;;;3.70;99.90;;;;;;5027663;28;20524;-83
2022/01/05 05:47:55;;;;;;;12.60;1.70;;;3.70;99.90;;;;;;5023309;28;20056;-83
2022/01/05 05:50:21;;;;;;;16.88;2.85;;;3.70;99.90;;;;;;5028024;28;20037;-83
2022/01/05 05:52:46;;;;;;;12.10;1.70;;;3.70;99.90;;;;;;5028475;28;20053;-83
2022/01/05 05:55:12;;;;;;;13.30;2.15;;;3.80;99.90;;;;;;5028240;28;20041;-83
2022/01/05 05:57:38;;;;;;;16.92;2.60;;;3.80;99.90;;;;;;5028815;28;20651;-83
2022/01/05 06:00:05;;;;;;;15.55;1.75;;;3.80;99.90;;;;;;5027695;28;20520;-83
2022/01/05 06:02:30;;;;;;;21.40;2.38;;;3.80;99.90;;;;;;5025093;28;20543;-83
2022/01/05 06:04:56;;;;;;;21.95;2.42;;;3.90;99.90;;;;;;5030572;28;20053;-84
2022/01/05 06:07:22;;;;;;;20.30;3.33;;;3.90;99.90;;;;;;5026397;28;20049;-83
2022/01/05 06:09:47;;;;;;;18.85;2.85;;;3.90;99.90;;;;;;5023665;28;20053;-83
2022/01/05 06:12:13;;;;;;;25.10;2.22;;;3.90;99.90;;;;;;5023790;28;20083;-84
2022/01/05 06:14:38;;;;;;;26.65;3.13;;;3.90;99.90;;;;;;5025627;28;20059;-83
2022/01/05 06:17:04;;;;;;;16.23;2.72;;;3.90;99.90;;;;;;5031266;28;20128;-83
2022/01/05 06:19:29;;;;;;;20.88;2.35;;;3.90;99.90;;;;;;5038115;28;20846;-83
2022/01/05 06:21:55;;;;;;;10.63;1.88;;;2.80;99.90;;;;;;5031214;28;20124;-83
2022/01/05 06:24:21;;;;;;;17.58;2.10;;;3.80;99.90;;;;;;5028218;28;20088;-83
2022/01/05 06:26:46;;;;;;;11.18;1.88;;;3.90;99.90;;;;;;5045516;28;20495;-84
2022/01/05 06:29:15;;;;;;;11.23;1.95;;;3.80;99.90;;;;;;5024244;28;20046;-82
2022/01/05 06:31:40;;;;;;;11.90;1.67;;;3.90;99.90;;;;;;5029485;28;20045;-83
2022/01/05 06:34:06;;;;;;;11.40;2.08;;;3.90;99.90;;;;;;5027294;28;20057;-82
2022/01/05 06:36:32;;;;;;;12.82;1.75;;;3.90;99.90;;;;;;5019499;28;20038;-82
2022/01/05 06:38:57;;;;;;;9.55;1.60;;;3.90;99.90;;;;;;5020597;28;20050;-83
2022/01/05 06:41:23;;;;;;;12.10;1.52;;;3.90;99.90;;;;;;5024714;28;20413;-83
2022/01/05 06:43:49;;;;;;;16.05;2.08;;;3.90;99.90;;;;;;5020651;28;20374;-83
2022/01/05 06:46:14;;;;;;;14.13;2.13;;;3.90;99.90;;;;;;5026271;28;20101;-81
2022/01/05 06:48:40;;;;;;;15.27;1.80;;;3.90;99.90;;;;;;5024587;28;20472;-81
2022/01/05 06:51:05;;;;;;;18.42;2.28;;;4.00;99.90;;;;;;5025200;28;20124;-80
2022/01/05 06:53:31;;;;;;;12.68;1.80;;;4.00;99.90;;;;;;5027365;28;20064;-82
2022/01/05 06:55:57;;;;;;;11.27;2.05;;;4.00;99.90;;;;;;5044894;28;20041;-82
2022/01/05 06:58:22;;;;;;;9.98;1.80;;;4.00;99.90;;;;;;5028573;28;20037;-82
2022/01/05 07:00:48;;;;;;;15.98;2.45;;;4.00;99.90;;;;;;5025427;28;20670;-82
2022/01/05 07:03:14;;;;;;;13.27;2.05;;;4.00;99.90;;;;;;5043747;28;20046;-82
2022/01/05 07:05:40;;;;;;;12.00;1.67;;;4.00;99.90;;;;;;5028494;28;20033;-82
2022/01/05 07:08:06;;;;;;;21.20;2.17;;;4.00;99.90;;;;;;5057990;28;20548;-82
2022/01/05 07:10:32;;;;;;;9.77;1.88;;;4.00;99.90;;;;;;5027330;28;20041;-82
2022/01/05 07:12:57;;;;;;;9.68;1.60;;;4.00;99.90;;;;;;5019376;28;20048;-82
2022/01/05 07:15:25;;;;;;;9.88;2.00;;;4.10;99.90;;;;;;5026621;28;20038;-83
2022/01/05 07:17:50;;;;;;;12.75;1.20;;;4.10;99.90;;;;;;5024475;28;20508;-82
2022/01/05 07:20:16;;;;;;;9.07;1.15;;;4.10;99.90;;;;;;5027909;28;20033;-82
2022/01/05 07:22:42;;;;;;;7.35;1.33;;;4.10;99.90;;;;;;5025084;28;20049;-82
2022/01/05 07:25:09;;;;;;;9.63;1.10;;;4.10;99.90;;;;;;5022752;28;20038;-83
2022/01/05 07:27:36;;;;;;;7.00;0.90;;;4.10;99.90;;;;;;5027442;28;20104;-83
2022/01/05 07:30:04;;;;;;;8.13;0.95;;;4.10;99.90;;;;;;5026561;28;20045;-84
2022/01/05 07:32:29;;;;;;;8.98;1.85;;;4.10;99.90;;;;;;5025644;28;20148;-83
2022/01/05 07:34:55;;;;;;;5.35;0.90;;;4.20;99.90;;;;;;5027698;28;20537;-83
2022/01/05 07:37:21;;;;;;;7.20;1.10;;;4.20;99.90;;;;;;5025535;28;20072;-84
2022/01/05 07:39:46;;;;;;;11.85;1.00;;;4.20;99.90;;;;;;5028050;28;20432;-84
2022/01/05 07:42:12;;;;;;;11.73;1.38;;;4.20;99.90;;;;;;5026559;28;20128;-86
2022/01/05 07:44:38;;;;;;;13.27;1.10;;;4.20;99.90;;;;;;5023791;28;20485;-86
2022/01/05 07:47:05;;;;;;;9.18;1.17;;;4.20;99.90;;;;;;5025391;28;20416;-85
2022/01/05 07:49:30;;;;;;;9.98;1.15;;;4.20;99.90;;;;;;5023308;28;20148;-86
2022/01/05 07:51:56;;;;;;;13.60;1.73;;;4.20;99.90;;;;;;5024936;28;20132;-86
2022/01/05 07:54:22;;;;;;;12.55;1.50;;;4.20;99.90;;;;;;5027632;28;20076;-86
2022/01/05 07:56:47;;;;;;;12.05;1.05;;;4.20;99.90;;;;;;5017432;28;20517;-87
2022/01/05 07:59:13;;;;;;;11.57;1.63;;;4.20;99.90;;;;;;5019365;28;20117;-88
2022/01/05 08:01:39;;;;;;;9.45;1.20;;;4.20;99.90;;;;;;5026852;28;20459;-87
2022/01/05 08:04:04;;;;;;;7.20;1.30;;;4.20;99.90;;;;;;5025819;28;20053;-83
2022/01/05 08:06:30;;;;;;;11.48;1.65;;;4.20;99.90;;;;;;5024873;28;20440;-85
2022/01/05 08:08:56;;;;;;;11.25;1.60;;;4.30;99.90;;;;;;5024236;28;20053;-84
2022/01/05 08:11:21;;;;;;;8.95;1.52;;;4.30;99.90;;;;;;5020157;28;20077;-85
2022/01/05 08:13:47;;;;;;;12.15;1.73;;;4.40;99.90;;;;;;5027768;28;20037;-86
2022/01/05 08:16:14;;;;;;;9.07;1.02;;;4.40;99.90;;;;;;5027140;28;20144;-85
2022/01/05 08:18:39;;;;;;;11.27;1.02;;;4.40;99.90;;;;;;5028034;28;20037;-85
2022/01/05 08:21:05;;;;;;;7.45;1.15;;;4.50;99.90;;;;;;5027844;28;20056;-85
2022/01/05 08:23:31;;;;;;;13.95;1.77;;;4.50;99.90;;;;;;5025982;28;20042;-87
2022/01/05 08:25:57;;;;;;;7.22;0.85;;;4.50;99.90;;;;;;5031682;28;20064;-86
2022/01/05 08:28:22;;;;;;;9.85;1.90;;;4.50;99.90;;;;;;5029893;28;20048;-86
2022/01/05 08:30:48;;;;;;;5.65;0.70;;;4.60;99.90;;;;;;5030047;28;20037;-86
2022/01/05 08:33:15;;;;;;;9.43;1.00;;;4.60;99.90;;;;;;5025708;28;20103;-86
2022/01/05 08:35:42;;;;;;;6.70;1.10;;;4.60;99.90;;;;;;5028601;28;20065;-86
2022/01/05 08:38:07;;;;;;;6.43;0.70;;;4.70;99.90;;;;;;5028637;28;20038;-85
2022/01/05 08:40:35;;;;;;;15.85;2.25;;;4.70;99.90;;;;;;5030357;28;20043;-85
2022/01/05 08:43:03;;;;;;;9.32;1.92;;;4.70;99.90;;;;;;5027211;28;20060;-86
2022/01/05 08:45:29;;;;;;;11.73;1.13;;;4.70;99.90;;;;;;5027307;28;20044;-85
2022/01/05 08:47:56;;;;;;;6.32;1.17;;;4.70;99.90;;;;;;5028781;28;20057;-85
2022/01/05 08:50:25;;;;;;;9.65;1.00;;;4.70;99.90;;;;;;5028738;28;20598;-85
2022/01/05 08:52:52;;;;;;;9.15;1.48;;;4.70;99.90;;;;;;5028014;28;20054;-85
2022/01/05 08:55:20;;;;;;;12.05;1.65;;;4.70;99.90;;;;;;5027972;28;20057;-86
2022/01/05 08:57:46;;;;;;;11.18;1.48;;;4.80;99.90;;;;;;5029491;28;20045;-85
2022/01/05 09:00:13;;;;;;;16.83;2.60;;;4.80;99.90;;;;;;5027736;28;20033;-84
2022/01/05 09:02:39;;;;;;;14.23;1.90;;;4.90;99.90;;;;;;5025384;28;20460;-84
2022/01/05 09:05:05;;;;;;;18.60;3.05;;;4.90;99.90;;;;;;5026765;28;20046;-84
2022/01/05 09:07:31;;;;;;;18.50;2.63;;;4.90;99.90;;;;;;5027165;28;20538;-85
2022/01/05 09:09:57;;;;;;;14.07;1.52;;;4.90;99.90;;;;;;5026746;28;20041;-85
2022/01/05 09:12:23;;;;;;;15.35;4.10;;;5.00;99.90;;;;;;5024389;28;20091;-86
2022/01/05 09:14:49;;;;;;;14.55;2.70;;;5.00;99.90;;;;;;5022354;28;20088;-87
2022/01/05 09:17:15;;;;;;;18.23;2.67;;;5.10;99.90;;;;;;5027557;28;20037;-84
2022/01/05 09:19:42;;;;;;;12.75;2.05;;;5.10;99.90;;;;;;5023348;28;20503;-83
2022/01/05 09:22:08;;;;;;;11.68;1.63;;;5.30;99.90;;;;;;5027357;28;20037;-83
2022/01/05 09:24:34;;;;;;;16.17;1.77;;;5.10;99.90;;;;;;5028126;28;20115;-84
2022/01/05 09:27:03;;;;;;;12.48;2.08;;;5.10;99.90;;;;;;5027257;28;20095;-84
2022/01/05 09:29:32;;;;;;;11.02;1.45;;;5.10;99.90;;;;;;5023877;28;20061;-82
2022/01/05 09:32:03;;;;;;;16.38;1.73;;;5.10;99.90;;;;;;5029474;28;20053;-78
2022/01/05 09:34:30;;;;;;;12.07;1.73;;;5.20;99.90;;;;;;5029436;28;20067;-82
2022/01/05 09:37:01;;;;;;;14.00;1.17;;;5.20;99.90;;;;;;5027091;28;20060;-83
2022/01/05 09:42:11;;;;;;;10.27;1.50;;;5.20;99.90;;;;;;5017577;28;20049;-82
2022/01/05 09:44:42;;;;;;;9.73;1.23;;;5.20;99.90;;;;;;5025951;28;20555;-84
2022/01/05 09:47:32;;;;;;;7.53;1.70;;;5.30;99.90;;;;;;5027120;28;20042;-84
2022/01/05 09:50:04;;;;;;;8.73;1.10;;;5.30;99.90;;;;;;5027111;28;20038;-84
2022/01/05 09:52:39;;;;;;;7.10;1.35;;;5.40;99.90;;;;;;5030359;28;20061;-78
2022/01/05 09:55:07;;;;;;;9.07;1.40;;;5.40;99.90;;;;;;5027766;28;20045;-79
2022/01/05 09:57:33;;;;;;;8.55;1.33;;;5.40;99.90;;;;;;5027756;28;20445;-76
2022/01/05 09:59:59;;;;;;;5.90;1.45;;;5.50;99.90;;;;;;5032470;28;20076;-76
2022/01/05 10:02:24;;;;;;;11.25;2.17;;;5.60;99.90;;;;;;5034187;28;20045;-76
2022/01/05 10:04:50;;;;;;;11.40;2.67;;;5.60;99.90;;;;;;5025233;28;20075;-79
2022/01/05 10:07:16;;;;;;;13.65;2.00;;;5.60;99.90;;;;;;5031986;28;20041;-78
2022/01/05 10:09:43;;;;;;;12.75;1.98;;;5.70;99.90;;;;;;5026768;28;20041;-80
2022/01/05 10:12:13;;;;;;;17.77;2.33;;;5.70;99.90;;;;;;5022883;28;20049;-82
2022/01/05 10:14:40;;;;;;;13.90;2.28;;;5.70;99.90;;;;;;5027370;28;20128;-81
2022/01/05 10:17:16;;;;;;;10.30;1.55;;;5.70;99.90;;;;;;5031612;28;20065;-81
2022/01/05 10:19:44;;;;;;;20.42;2.15;;;5.80;99.90;;;;;;5021389;28;20064;-82
2022/01/05 10:22:33;;;;;;;13.38;1.42;;;5.80;99.90;;;;;;5025139;28;20037;-81
2022/01/05 10:25:23;;;;;;;10.88;1.77;;;5.90;99.90;;;;;;5027142;28;20053;-82
2022/01/05 10:28:25;;;;;;;19.40;2.22;;;6.00;99.90;;;;;;5022197;28;20081;-83
2022/01/05 10:30:51;;;;;;;12.00;1.92;;;6.00;99.90;;;;;;5027051;28;20052;-85
2022/01/05 10:33:28;;;;;;;13.68;1.70;;;6.00;99.90;;;;;;5027459;28;20045;-83
2022/01/05 10:35:57;;;;;;;11.18;1.33;;;6.00;99.90;;;;;;5023336;28;20057;-83
2022/01/05 10:38:28;;;;;;;15.85;1.67;;;6.00;99.90;;;;;;5029054;28;20042;-84
2022/01/05 10:40:54;;;;;;;14.55;2.22;;;6.00;99.90;;;;;;5025711;28;20120;-84
2022/01/05 10:43:20;;;;;;;7.57;1.80;;;6.00;99.90;;;;;;5019931;28;20183;-84
2022/01/05 10:45:48;;;;;;;11.85;1.73;;;6.00;99.90;;;;;;5025619;28;20518;-84
2022/01/05 10:48:19;;;;;;;8.18;1.40;;;6.10;99.90;;;;;;5015953;28;20041;-84
2022/01/05 10:50:47;;;;;;;16.50;2.40;;;6.10;99.90;;;;;;5028940;28;20049;-84
2022/01/05 10:53:21;;;;;;;14.95;1.58;;;6.20;99.90;;;;;;5022628;28;20053;-84
2022/01/05 10:55:47;;;;;;;12.20;1.80;;;6.20;99.90;;;;;;5026006;28;20053;-83
2022/01/05 10:58:15;;;;;;;15.88;1.65;;;6.30;99.90;;;;;;5024229;28;20045;-85
2022/01/05 11:00:52;;;;;;;13.77;1.52;;;6.30;99.90;;;;;;5026511;28;20060;-85
2022/01/05 11:03:23;;;;;;;13.55;1.95;;;6.30;99.90;;;;;;5024238;28;20116;-82
2022/01/05 11:06:13;;;;;;;13.18;2.60;;;6.30;99.90;;;;;;5025700;28;20050;-83
2022/01/05 11:08:52;;;;;;;18.15;2.38;;;6.40;99.90;;;;;;5022290;28;20428;-81
2022/01/05 11:11:31;;;;;;;16.48;2.55;;;6.50;99.90;;;;;;5016187;28;20041;-82
2022/01/05 11:13:56;;;;;;;14.27;1.90;;;6.50;99.90;;;;;;5025782;28;20059;-82
2022/01/05 11:16:30;;;;;;;13.63;2.38;;;6.50;99.90;;;;;;5027566;28;20420;-81
2022/01/05 11:19:27;;;;;;;16.13;2.15;;;6.60;99.90;;;;;;5033593;28;20144;-81
2022/01/05 11:21:58;;;;;;;11.50;2.60;;;6.60;99.90;;;;;;5020870;28;20480;-80
2022/01/05 11:24:25;;;;;;;13.68;1.90;;;6.60;99.90;;;;;;5021801;28;20053;-80
2022/01/05 11:26:51;;;;;;;20.73;2.85;;;6.70;99.90;;;;;;5024570;28;20542;-80
2022/01/05 11:29:18;;;;;;;11.13;2.28;;;6.70;99.90;;;;;;5024472;28;20225;-81
2022/01/05 11:31:46;;;;;;;17.15;2.35;;;6.70;99.90;;;;;;5027034;28;20073;-80
2022/01/05 11:34:13;;;;;;;18.30;2.20;;;6.80;99.90;;;;;;5023816;28;20097;-80
2022/01/05 11:36:41;;;;;;;24.95;2.58;;;6.80;99.90;;;;;;5025066;28;20041;-80
2022/01/05 11:39:06;;;;;;;14.32;3.03;;;6.80;99.90;;;;;;5023665;28;20098;-81
2022/01/05 11:41:35;;;;;;;17.30;2.67;;;6.90;99.90;;;;;;5024525;28;20041;-80
2022/01/05 11:44:04;;;;;;;20.90;3.35;;;7.00;99.90;;;;;;5027433;28;20401;-83
2022/01/05 11:46:30;;;;;;;17.95;2.45;;;7.00;99.90;;;;;;5025489;28;20504;-80
2022/01/05 11:49:01;;;;;;;15.98;2.22;;;7.10;99.90;;;;;;5029998;28;20497;-82
2022/01/05 11:51:45;;;;;;;19.55;2.55;;;7.10;99.90;;;;;;5028328;28;20045;-81
2022/01/05 11:54:30;;;;;;;17.42;2.70;;;7.10;99.90;;;;;;5024549;28;20056;-80
2022/01/05 11:57:13;;;;;;;16.50;2.47;;;7.10;99.90;;;;;;5029791;28;20106;-82
2022/01/05 11:59:43;;;;;;;20.55;2.65;;;7.10;99.90;;;;;;5030170;28;20050;-81
2022/01/05 12:02:14;;;;;;;15.02;2.60;;;7.10;99.90;;;;;;5029550;28;20247;-81
2022/01/05 12:05:09;;;;;;;14.35;2.33;;;7.10;99.90;;;;;;5064048;28;20083;-81
2022/01/05 12:07:37;;;;;;;15.60;2.45;;;7.10;99.90;;;;;;5011427;28;20517;-81
2022/01/05 12:13:03;;;;;;;15.57;1.98;;;7.10;99.90;;;;;;5024460;28;20132;-80
2022/01/05 12:15:53;;;;;;;14.48;2.38;;;7.10;99.90;;;;;;5028235;28;20053;-79
2022/01/05 12:18:21;;;;;;;21.95;2.97;;;7.10;99.90;;;;;;5033038;28;20045;-78
2022/01/05 12:20:47;;;;;;;16.08;2.22;;;7.10;99.90;;;;;;5030417;28;20041;-80
2022/01/05 12:23:14;;;;;;;18.88;2.53;;;7.20;99.90;;;;;;5025740;28;20041;-79
2022/01/05 12:26:07;;;;;;;14.32;2.42;;;7.20;99.90;;;;;;5029429;28;20052;-79
2022/01/05 12:28:36;;;;;;;18.50;2.22;;;7.30;99.90;;;;;;5024391;28;20053;-78
2022/01/05 12:31:02;;;;;;;14.63;2.15;;;7.30;99.90;;;;;;5027132;28;20514;-79
2022/01/05 12:33:51;;;;;;;15.35;2.00;;;7.30;99.90;;;;;;5030666;28;20034;-78
2022/01/05 12:36:38;;;;;;;19.50;2.70;;;7.30;99.90;;;;;;5024569;28;20499;-79
2022/01/05 12:39:08;;;;;;;12.68;2.63;;;7.30;99.90;;;;;;5063963;28;20069;-79
2022/01/05 12:41:42;;;;;;;12.73;2.38;;;7.20;99.90;;;;;;5021586;28;20042;-79
2022/01/05 12:44:10;;;;;;;28.05;2.65;;;7.20;99.90;;;;;;5022408;28;20557;-79
2022/01/05 12:46:43;;;;;;;12.90;1.90;;;7.20;99.90;;;;;;5018693;28;20041;-79
2022/01/05 12:49:14;;;;;;;9.68;2.05;;;7.10;99.90;;;;;;5031072;28;20056;-79
2022/01/05 12:51:44;;;;;;;14.77;1.90;;;7.10;99.90;;;;;;5023860;28;20044;-80
2022/01/05 12:54:13;;;;;;;15.15;2.03;;;7.10;99.90;;;;;;5025874;28;20455;-77
2022/01/05 12:56:49;;;;;;;13.02;2.25;;;7.40;99.90;;;;;;5030272;28;20041;-77
2022/01/05 12:59:21;;;;;;;15.63;2.35;;;7.10;99.90;;;;;;5029916;28;20042;-80
2022/01/05 13:01:52;;;;;;;16.70;2.22;;;7.10;99.90;;;;;;5030819;28;20049;-81